sensor_id;sensor_type;location;lat;lon;timestamp;temperature;humidity
59923;DHT22;45778;51.142;3.732;2023-03-01T00:02:07;1.50;99.90
59923;DHT22;45778;51.142;3.732;2023-03-01T00:04:33;1.40;99.90
59923;DHT22;45778;51.142;3.732;2023-03-01T00:07:01;1.40;99.90
59923;DHT22;45778;51.142;3.732;2023-03-01T00:09:27;1.50;99.90
59923;DHT22;45778;51.142;3.732;2023-03-01T00:11:52;1.40;99.90
59923;DHT22;45778;51.142;3.732;2023-03-01T00:14:18;1.40;99.90
59923;DHT22;45778;51.142;3.732;2023-03-01T00:16:44;1.30;99.90
59923;DHT22;45778;51.142;3.732;2023-03-01T00:19:13;1.40;99.90
59923;DHT22;45778;51.142;3.732;2023-03-01T00:21:40;1.60;99.90
59923;DHT22;45778;51.142;3.732;2023-03-01T00:24:06;1.70;99.90
59923;DHT22;45778;51.142;3.732;2023-03-01T00:26:32;1.60;99.90
59923;DHT22;45778;51.142;3.732;2023-03-01T00:28:58;1.50;99.90
59923;DHT22;45778;51.142;3.732;2023-03-01T00:31:27;1.20;99.90
59923;DHT22;45778;51.142;3.732;2023-03-01T00:33:54;1.00;99.90
59923;DHT22;45778;51.142;3.732;2023-03-01T00:36:24;0.90;99.90
59923;DHT22;45778;51.142;3.732;2023-03-01T00:38:50;0.80;99.90
59923;DHT22;45778;51.142;3.732;2023-03-01T00:41:17;0.70;99.90
59923;DHT22;45778;51.142;3.732;2023-03-01T00:43:44;0.60;99.90
59923;DHT22;45778;51.142;3.732;2023-03-01T00:46:15;0.70;99.90
59923;DHT22;45778;51.142;3.732;2023-03-01T00:48:41;0.80;99.90
59923;DHT22;45778;51.142;3.732;2023-03-01T00:51:20;0.90;99.90
59923;DHT22;45778;51.142;3.732;2023-03-01T00:53:46;1.00;99.90
59923;DHT22;45778;51.142;3.732;2023-03-01T00:56:14;1.00;99.90
59923;DHT22;45778;51.142;3.732;2023-03-01T00:58:40;1.00;99.90
59923;DHT22;45778;51.142;3.732;2023-03-01T01:01:30;1.00;99.90
59923;DHT22;45778;51.142;3.732;2023-03-01T01:04:04;1.10;99.90
59923;DHT22;45778;51.142;3.732;2023-03-01T01:06:38;1.20;99.90
59923;DHT22;45778;51.142;3.732;2023-03-01T01:09:06;1.20;99.90
59923;DHT22;45778;51.142;3.732;2023-03-01T01:11:32;1.20;99.90
59923;DHT22;45778;51.142;3.732;2023-03-01T01:13:58;1.30;99.90
59923;DHT22;45778;51.142;3.732;2023-03-01T01:16:26;1.10;99.90
59923;DHT22;45778;51.142;3.732;2023-03-01T01:18:52;1.00;99.90
59923;DHT22;45778;51.142;3.732;2023-03-01T01:21:20;1.00;99.90
59923;DHT22;45778;51.142;3.732;2023-03-01T01:23:47;1.00;99.90
59923;DHT22;45778;51.142;3.732;2023-03-01T01:26:18;0.90;99.90
59923;DHT22;45778;51.142;3.732;2023-03-01T01:28:45;1.00;99.90
59923;DHT22;45778;51.142;3.732;2023-03-01T01:31:11;1.10;99.90
59923;DHT22;45778;51.142;3.732;2023-03-01T01:33:37;1.10;99.90
59923;DHT22;45778;51.142;3.732;2023-03-01T01:36:04;1.10;99.90
59923;DHT22;45778;51.142;3.732;2023-03-01T01:38:30;1.20;99.90
59923;DHT22;45778;51.142;3.732;2023-03-01T01:40:56;1.20;99.90
59923;DHT22;45778;51.142;3.732;2023-03-01T01:43:34;1.30;99.90
59923;DHT22;45778;51.142;3.732;2023-03-01T01:46:06;1.30;99.90
59923;DHT22;45778;51.142;3.732;2023-03-01T01:48:49;1.20;99.90
59923;DHT22;45778;51.142;3.732;2023-03-01T01:51:21;1.30;99.90
59923;DHT22;45778;51.142;3.732;2023-03-01T01:53:51;1.30;99.90
59923;DHT22;45778;51.142;3.732;2023-03-01T01:56:18;1.30;99.90
59923;DHT22;45778;51.142;3.732;2023-03-01T01:58:45;1.30;99.90
59923;DHT22;45778;51.142;3.732;2023-03-01T02:01:13;1.10;99.90
59923;DHT22;45778;51.142;3.732;2023-03-01T02:03:39;1.20;99.90
59923;DHT22;45778;51.142;3.732;2023-03-01T02:06:36;1.20;99.90
59923;DHT22;45778;51.142;3.732;2023-03-01T02:09:02;1.20;99.90
59923;DHT22;45778;51.142;3.732;2023-03-01T02:11:30;1.10;99.90
59923;DHT22;45778;51.142;3.732;2023-03-01T02:13:56;1.10;99.90
59923;DHT22;45778;51.142;3.732;2023-03-01T02:16:22;1.10;99.90
59923;DHT22;45778;51.142;3.732;2023-03-01T02:18:49;1.10;99.90
59923;DHT22;45778;51.142;3.732;2023-03-01T02:24:33;1.10;99.90
59923;DHT22;45778;51.142;3.732;2023-03-01T02:26:56;1.10;99.90
59923;DHT22;45778;51.142;3.732;2023-03-01T02:29:24;1.10;99.90
59923;DHT22;45778;51.142;3.732;2023-03-01T02:31:51;1.00;99.90
59923;DHT22;45778;51.142;3.732;2023-03-01T02:34:23;0.90;99.90
59923;DHT22;45778;51.142;3.732;2023-03-01T02:36:55;0.90;99.90
59923;DHT22;45778;51.142;3.732;2023-03-01T02:39:34;1.10;99.90
59923;DHT22;45778;51.142;3.732;2023-03-01T02:42:03;0.90;99.90
59923;DHT22;45778;51.142;3.732;2023-03-01T02:44:29;0.80;99.90
59923;DHT22;45778;51.142;3.732;2023-03-01T02:46:56;0.80;99.90
59923;DHT22;45778;51.142;3.732;2023-03-01T02:49:28;1.00;99.90
59923;DHT22;45778;51.142;3.732;2023-03-01T02:57:10;0.50;99.90
59923;DHT22;45778;51.142;3.732;2023-03-01T02:59:37;0.40;99.90
59923;DHT22;45778;51.142;3.732;2023-03-01T03:02:18;0.30;99.90
59923;DHT22;45778;51.142;3.732;2023-03-01T03:04:46;0.30;99.90
59923;DHT22;45778;51.142;3.732;2023-03-01T03:07:12;0.50;99.90
59923;DHT22;45778;51.142;3.732;2023-03-01T03:09:37;0.60;99.90
59923;DHT22;45778;51.142;3.732;2023-03-01T03:12:03;0.80;99.90
59923;DHT22;45778;51.142;3.732;2023-03-01T03:14:29;0.70;99.90
59923;DHT22;45778;51.142;3.732;2023-03-01T03:16:55;0.70;99.90
59923;DHT22;45778;51.142;3.732;2023-03-01T03:19:21;0.60;99.90
59923;DHT22;45778;51.142;3.732;2023-03-01T03:21:46;0.30;99.90
59923;DHT22;45778;51.142;3.732;2023-03-01T03:24:12;0.30;99.90
59923;DHT22;45778;51.142;3.732;2023-03-01T03:26:38;0.40;99.90
59923;DHT22;45778;51.142;3.732;2023-03-01T03:29:03;0.50;99.90
59923;DHT22;45778;51.142;3.732;2023-03-01T03:31:29;0.80;99.90
59923;DHT22;45778;51.142;3.732;2023-03-01T03:33:55;0.60;99.90
59923;DHT22;45778;51.142;3.732;2023-03-01T03:36:23;0.50;99.90
59923;DHT22;45778;51.142;3.732;2023-03-01T03:38:49;0.50;99.90
59923;DHT22;45778;51.142;3.732;2023-03-01T03:41:16;0.50;99.90
59923;DHT22;45778;51.142;3.732;2023-03-01T03:43:43;0.40;99.90
59923;DHT22;45778;51.142;3.732;2023-03-01T03:46:10;0.20;99.90
59923;DHT22;45778;51.142;3.732;2023-03-01T03:48:38;0.30;99.90
59923;DHT22;45778;51.142;3.732;2023-03-01T03:51:05;0.20;99.90
59923;DHT22;45778;51.142;3.732;2023-03-01T03:53:31;0.10;99.90
59923;DHT22;45778;51.142;3.732;2023-03-01T03:55:57;-0.10;99.90
59923;DHT22;45778;51.142;3.732;2023-03-01T03:58:24;-0.10;99.90
59923;DHT22;45778;51.142;3.732;2023-03-01T04:00:55;0.10;99.90
59923;DHT22;45778;51.142;3.732;2023-03-01T04:03:22;0.00;99.90
59923;DHT22;45778;51.142;3.732;2023-03-01T04:05:49;0.00;99.90
59923;DHT22;45778;51.142;3.732;2023-03-01T04:08:22;0.20;99.90
59923;DHT22;45778;51.142;3.732;2023-03-01T04:10:55;0.30;99.90
59923;DHT22;45778;51.142;3.732;2023-03-01T04:13:22;0.20;99.90
59923;DHT22;45778;51.142;3.732;2023-03-01T04:15:51;0.30;99.90
59923;DHT22;45778;51.142;3.732;2023-03-01T04:18:20;0.40;99.90
59923;DHT22;45778;51.142;3.732;2023-03-01T04:20:46;0.40;99.90
59923;DHT22;45778;51.142;3.732;2023-03-01T04:23:17;0.50;99.90
59923;DHT22;45778;51.142;3.732;2023-03-01T04:25:53;0.40;99.90
59923;DHT22;45778;51.142;3.732;2023-03-01T04:30:55;0.50;99.90
59923;DHT22;45778;51.142;3.732;2023-03-01T04:33:22;0.60;99.90
59923;DHT22;45778;51.142;3.732;2023-03-01T04:35:48;0.60;99.90
59923;DHT22;45778;51.142;3.732;2023-03-01T04:38:20;0.90;99.90
59923;DHT22;45778;51.142;3.732;2023-03-01T04:40:46;0.70;99.90
59923;DHT22;45778;51.142;3.732;2023-03-01T04:43:13;0.70;99.90
59923;DHT22;45778;51.142;3.732;2023-03-01T04:45:41;0.60;99.90
59923;DHT22;45778;51.142;3.732;2023-03-01T04:48:07;0.60;99.90
59923;DHT22;45778;51.142;3.732;2023-03-01T04:50:33;0.50;99.90
59923;DHT22;45778;51.142;3.732;2023-03-01T04:53:00;0.50;99.90
59923;DHT22;45778;51.142;3.732;2023-03-01T04:55:27;0.60;99.90
59923;DHT22;45778;51.142;3.732;2023-03-01T04:57:53;0.70;99.90
59923;DHT22;45778;51.142;3.732;2023-03-01T05:00:19;0.90;99.90
59923;DHT22;45778;51.142;3.732;2023-03-01T05:02:54;0.80;99.90
59923;DHT22;45778;51.142;3.732;2023-03-01T05:05:23;0.80;99.90
59923;DHT22;45778;51.142;3.732;2023-03-01T05:07:55;0.80;99.90
59923;DHT22;45778;51.142;3.732;2023-03-01T05:10:21;0.80;99.90
59923;DHT22;45778;51.142;3.732;2023-03-01T05:12:46;0.80;99.90
59923;DHT22;45778;51.142;3.732;2023-03-01T05:15:12;0.70;99.90
59923;DHT22;45778;51.142;3.732;2023-03-01T05:17:38;0.80;99.90
59923;DHT22;45778;51.142;3.732;2023-03-01T05:20:04;0.90;99.90
59923;DHT22;45778;51.142;3.732;2023-03-01T05:22:34;0.70;99.90
59923;DHT22;45778;51.142;3.732;2023-03-01T05:25:01;0.60;99.90
59923;DHT22;45778;51.142;3.732;2023-03-01T05:27:27;0.50;99.90
59923;DHT22;45778;51.142;3.732;2023-03-01T05:29:53;0.60;99.90
59923;DHT22;45778;51.142;3.732;2023-03-01T05:32:18;0.70;99.90
59923;DHT22;45778;51.142;3.732;2023-03-01T05:34:44;0.50;99.90
59923;DHT22;45778;51.142;3.732;2023-03-01T05:37:12;0.50;99.90
59923;DHT22;45778;51.142;3.732;2023-03-01T05:39:37;0.50;99.90
59923;DHT22;45778;51.142;3.732;2023-03-01T05:42:03;0.50;99.90
59923;DHT22;45778;51.142;3.732;2023-03-01T05:44:29;0.50;99.90
59923;DHT22;45778;51.142;3.732;2023-03-01T05:46:55;0.50;99.90
59923;DHT22;45778;51.142;3.732;2023-03-01T05:49:22;0.60;99.90
59923;DHT22;45778;51.142;3.732;2023-03-01T05:51:52;0.70;99.90
59923;DHT22;45778;51.142;3.732;2023-03-01T05:54:20;0.40;99.90
59923;DHT22;45778;51.142;3.732;2023-03-01T05:56:47;0.30;99.90
59923;DHT22;45778;51.142;3.732;2023-03-01T05:59:12;0.30;99.90
59923;DHT22;45778;51.142;3.732;2023-03-01T06:01:39;0.20;99.90
59923;DHT22;45778;51.142;3.732;2023-03-01T06:04:05;0.20;99.90
59923;DHT22;45778;51.142;3.732;2023-03-01T06:06:35;0.00;99.90
59923;DHT22;45778;51.142;3.732;2023-03-01T06:09:03;0.10;99.90
59923;DHT22;45778;51.142;3.732;2023-03-01T06:11:29;-0.10;99.90
59923;DHT22;45778;51.142;3.732;2023-03-01T06:13:54;0.00;99.90
59923;DHT22;45778;51.142;3.732;2023-03-01T06:16:20;-0.10;99.90
59923;DHT22;45778;51.142;3.732;2023-03-01T06:18:46;-0.10;99.90
59923;DHT22;45778;51.142;3.732;2023-03-01T06:21:11;0.20;99.90
59923;DHT22;45778;51.142;3.732;2023-03-01T06:23:37;-0.20;99.90
59923;DHT22;45778;51.142;3.732;2023-03-01T06:26:07;-0.20;99.90
59923;DHT22;45778;51.142;3.732;2023-03-01T06:28:33;0.00;99.90
59923;DHT22;45778;51.142;3.732;2023-03-01T06:30:59;-0.30;99.90
59923;DHT22;45778;51.142;3.732;2023-03-01T06:33:24;-0.30;99.90
59923;DHT22;45778;51.142;3.732;2023-03-01T06:35:51;-0.20;99.90
59923;DHT22;45778;51.142;3.732;2023-03-01T06:38:17;-0.20;99.90
59923;DHT22;45778;51.142;3.732;2023-03-01T06:40:44;-0.10;99.90
59923;DHT22;45778;51.142;3.732;2023-03-01T06:43:10;0.00;99.90
59923;DHT22;45778;51.142;3.732;2023-03-01T06:45:36;-0.10;99.90
59923;DHT22;45778;51.142;3.732;2023-03-01T06:48:06;0.20;99.90
59923;DHT22;45778;51.142;3.732;2023-03-01T06:50:33;0.10;99.90
59923;DHT22;45778;51.142;3.732;2023-03-01T06:52:59;0.00;99.90
59923;DHT22;45778;51.142;3.732;2023-03-01T06:55:26;0.00;99.90
59923;DHT22;45778;51.142;3.732;2023-03-01T06:57:56;0.00;99.90
59923;DHT22;45778;51.142;3.732;2023-03-01T07:00:22;0.10;99.90
59923;DHT22;45778;51.142;3.732;2023-03-01T07:02:48;0.10;99.90
59923;DHT22;45778;51.142;3.732;2023-03-01T07:05:13;0.30;99.90
59923;DHT22;45778;51.142;3.732;2023-03-01T07:07:39;0.30;99.90
59923;DHT22;45778;51.142;3.732;2023-03-01T07:10:05;0.30;99.90
59923;DHT22;45778;51.142;3.732;2023-03-01T07:12:31;0.40;99.90
59923;DHT22;45778;51.142;3.732;2023-03-01T07:14:57;0.40;99.90
59923;DHT22;45778;51.142;3.732;2023-03-01T07:17:23;0.50;99.90
59923;DHT22;45778;51.142;3.732;2023-03-01T07:19:48;0.50;99.90
59923;DHT22;45778;51.142;3.732;2023-03-01T07:22:14;0.60;99.90
59923;DHT22;45778;51.142;3.732;2023-03-01T07:24:41;0.60;99.90
59923;DHT22;45778;51.142;3.732;2023-03-01T07:27:07;0.70;99.90
59923;DHT22;45778;51.142;3.732;2023-03-01T07:29:32;0.80;99.90
59923;DHT22;45778;51.142;3.732;2023-03-01T07:31:58;0.90;99.90
59923;DHT22;45778;51.142;3.732;2023-03-01T07:34:24;1.00;99.90
59923;DHT22;45778;51.142;3.732;2023-03-01T07:36:50;1.00;99.90
59923;DHT22;45778;51.142;3.732;2023-03-01T07:39:16;1.00;99.90
59923;DHT22;45778;51.142;3.732;2023-03-01T07:41:41;1.10;99.90
59923;DHT22;45778;51.142;3.732;2023-03-01T07:44:07;1.10;99.90
59923;DHT22;45778;51.142;3.732;2023-03-01T07:46:33;1.20;99.90
59923;DHT22;45778;51.142;3.732;2023-03-01T07:48:58;1.40;99.90
59923;DHT22;45778;51.142;3.732;2023-03-01T07:51:24;1.50;99.90
59923;DHT22;45778;51.142;3.732;2023-03-01T07:53:50;1.60;99.90
59923;DHT22;45778;51.142;3.732;2023-03-01T07:56:16;1.70;99.90
59923;DHT22;45778;51.142;3.732;2023-03-01T07:58:44;1.70;99.90
59923;DHT22;45778;51.142;3.732;2023-03-01T08:01:15;1.80;99.90
59923;DHT22;45778;51.142;3.732;2023-03-01T08:03:42;1.90;99.90
59923;DHT22;45778;51.142;3.732;2023-03-01T08:06:10;2.00;99.90
59923;DHT22;45778;51.142;3.732;2023-03-01T08:08:36;2.00;99.90
59923;DHT22;45778;51.142;3.732;2023-03-01T08:11:03;2.30;99.90
59923;DHT22;45778;51.142;3.732;2023-03-01T08:13:30;2.20;99.90
59923;DHT22;45778;51.142;3.732;2023-03-01T08:16:07;2.30;99.90
59923;DHT22;45778;51.142;3.732;2023-03-01T08:18:33;2.40;99.90
59923;DHT22;45778;51.142;3.732;2023-03-01T08:21:07;2.50;99.90
59923;DHT22;45778;51.142;3.732;2023-03-01T08:23:33;2.60;99.90
59923;DHT22;45778;51.142;3.732;2023-03-01T08:26:07;2.70;99.90
59923;DHT22;45778;51.142;3.732;2023-03-01T08:28:33;2.90;99.90
59923;DHT22;45778;51.142;3.732;2023-03-01T08:30:59;3.00;99.90
59923;DHT22;45778;51.142;3.732;2023-03-01T08:33:24;3.00;99.90
59923;DHT22;45778;51.142;3.732;2023-03-01T08:35:50;3.10;99.90
59923;DHT22;45778;51.142;3.732;2023-03-01T08:38:16;3.00;99.90
59923;DHT22;45778;51.142;3.732;2023-03-01T08:40:41;3.10;99.90
59923;DHT22;45778;51.142;3.732;2023-03-01T08:43:07;3.20;99.90
59923;DHT22;45778;51.142;3.732;2023-03-01T08:45:33;3.30;99.90
59923;DHT22;45778;51.142;3.732;2023-03-01T08:47:58;3.30;99.90
59923;DHT22;45778;51.142;3.732;2023-03-01T08:50:24;3.30;99.90
59923;DHT22;45778;51.142;3.732;2023-03-01T08:52:50;3.40;99.90
59923;DHT22;45778;51.142;3.732;2023-03-01T08:55:16;3.40;99.90
59923;DHT22;45778;51.142;3.732;2023-03-01T08:57:43;3.60;99.90
59923;DHT22;45778;51.142;3.732;2023-03-01T09:00:10;3.60;99.90
59923;DHT22;45778;51.142;3.732;2023-03-01T09:02:36;3.80;99.90
59923;DHT22;45778;51.142;3.732;2023-03-01T09:05:02;3.90;99.90
59923;DHT22;45778;51.142;3.732;2023-03-01T09:07:28;3.90;99.90
59923;DHT22;45778;51.142;3.732;2023-03-01T09:09:54;4.00;99.90
59923;DHT22;45778;51.142;3.732;2023-03-01T09:12:20;4.20;99.90
59923;DHT22;45778;51.142;3.732;2023-03-01T09:14:46;4.40;99.90
59923;DHT22;45778;51.142;3.732;2023-03-01T09:17:12;4.50;99.90
59923;DHT22;45778;51.142;3.732;2023-03-01T09:19:38;4.50;99.90
59923;DHT22;45778;51.142;3.732;2023-03-01T09:22:06;4.60;99.90
59923;DHT22;45778;51.142;3.732;2023-03-01T09:24:32;4.60;99.90
59923;DHT22;45778;51.142;3.732;2023-03-01T09:26:58;4.70;99.90
59923;DHT22;45778;51.142;3.732;2023-03-01T09:29:23;4.80;99.90
59923;DHT22;45778;51.142;3.732;2023-03-01T09:31:49;4.80;99.90
59923;DHT22;45778;51.142;3.732;2023-03-01T09:34:15;4.80;99.90
59923;DHT22;45778;51.142;3.732;2023-03-01T09:36:44;4.80;99.90
59923;DHT22;45778;51.142;3.732;2023-03-01T09:39:10;4.90;99.90
59923;DHT22;45778;51.142;3.732;2023-03-01T09:44:34;5.10;99.90
59923;DHT22;45778;51.142;3.732;2023-03-01T09:47:02;5.30;99.90
59923;DHT22;45778;51.142;3.732;2023-03-01T09:49:31;5.30;99.90
59923;DHT22;45778;51.142;3.732;2023-03-01T09:52:06;5.40;99.90
59923;DHT22;45778;51.142;3.732;2023-03-01T09:54:36;5.40;99.90
59923;DHT22;45778;51.142;3.732;2023-03-01T10:10:39;5.70;99.90
59923;DHT22;45778;51.142;3.732;2023-03-01T10:13:19;5.60;99.90
59923;DHT22;45778;51.142;3.732;2023-03-01T10:15:55;5.40;99.90
59923;DHT22;45778;51.142;3.732;2023-03-01T10:18:26;5.40;99.90
59923;DHT22;45778;51.142;3.732;2023-03-01T10:20:59;5.50;99.90
59923;DHT22;45778;51.142;3.732;2023-03-01T10:23:27;5.50;99.90
59923;DHT22;45778;51.142;3.732;2023-03-01T10:26:16;5.70;99.90
59923;DHT22;45778;51.142;3.732;2023-03-01T10:29:07;5.90;99.90
59923;DHT22;45778;51.142;3.732;2023-03-01T10:31:54;6.00;99.90
59923;DHT22;45778;51.142;3.732;2023-03-01T10:34:29;6.10;99.50
59923;DHT22;45778;51.142;3.732;2023-03-01T10:36:58;6.10;99.50
59923;DHT22;45778;51.142;3.732;2023-03-01T10:39:26;6.10;99.10
59923;DHT22;45778;51.142;3.732;2023-03-01T10:47:02;6.30;99.00
59923;DHT22;45778;51.142;3.732;2023-03-01T10:49:27;6.40;98.60
59923;DHT22;45778;51.142;3.732;2023-03-01T10:52:16;6.60;98.00
59923;DHT22;45778;51.142;3.732;2023-03-01T10:54:52;6.70;98.00
59923;DHT22;45778;51.142;3.732;2023-03-01T10:57:34;6.70;97.60
59923;DHT22;45778;51.142;3.732;2023-03-01T11:00:21;6.80;98.60
59923;DHT22;45778;51.142;3.732;2023-03-01T11:03:03;6.90;98.60
59923;DHT22;45778;51.142;3.732;2023-03-01T11:05:32;6.90;98.10
59923;DHT22;45778;51.142;3.732;2023-03-01T11:08:00;7.00;98.60
59923;DHT22;45778;51.142;3.732;2023-03-01T11:10:36;7.10;98.30
59923;DHT22;45778;51.142;3.732;2023-03-01T11:13:16;7.10;98.00
59923;DHT22;45778;51.142;3.732;2023-03-01T11:15:43;7.30;97.70
59923;DHT22;45778;51.142;3.732;2023-03-01T11:18:22;7.20;97.80
59923;DHT22;45778;51.142;3.732;2023-03-01T11:20:50;7.20;97.70
59923;DHT22;45778;51.142;3.732;2023-03-01T11:23:17;7.30;97.80
59923;DHT22;45778;51.142;3.732;2023-03-01T11:25:58;7.30;97.20
59923;DHT22;45778;51.142;3.732;2023-03-01T11:28:26;7.40;96.80
59923;DHT22;45778;51.142;3.732;2023-03-01T11:36:06;7.40;95.80
59923;DHT22;45778;51.142;3.732;2023-03-01T11:38:35;7.40;96.60
59923;DHT22;45778;51.142;3.732;2023-03-01T11:41:20;7.50;96.60
59923;DHT22;45778;51.142;3.732;2023-03-01T11:46:47;7.50;96.20
59923;DHT22;45778;51.142;3.732;2023-03-01T11:57:55;7.70;94.90
59923;DHT22;45778;51.142;3.732;2023-03-01T12:03:27;7.90;95.60
59923;DHT22;45778;51.142;3.732;2023-03-01T12:32:48;12.60;85.30
59923;DHT22;45778;51.142;3.732;2023-03-01T12:46:42;16.80;72.10
59923;DHT22;45778;51.142;3.732;2023-03-01T12:49:23;17.20;68.50
59923;DHT22;45778;51.142;3.732;2023-03-01T12:52:04;17.50;66.80
59923;DHT22;45778;51.142;3.732;2023-03-01T12:54:36;17.50;65.60
59923;DHT22;45778;51.142;3.732;2023-03-01T12:57:21;17.30;63.70
59923;DHT22;45778;51.142;3.732;2023-03-01T13:00:22;17.40;64.10
59923;DHT22;45778;51.142;3.732;2023-03-01T13:03:00;17.80;63.00
59923;DHT22;45778;51.142;3.732;2023-03-01T13:05:37;18.30;60.80
59923;DHT22;45778;51.142;3.732;2023-03-01T13:08:22;17.40;61.70
59923;DHT22;45778;51.142;3.732;2023-03-01T13:11:00;17.20;61.90
59923;DHT22;45778;51.142;3.732;2023-03-01T13:13:28;17.90;61.80
59923;DHT22;45778;51.142;3.732;2023-03-01T13:15:54;18.40;59.10
59923;DHT22;45778;51.142;3.732;2023-03-01T13:20:52;17.40;59.20
59923;DHT22;45778;51.142;3.732;2023-03-01T13:31:01;18.90;57.20
59923;DHT22;45778;51.142;3.732;2023-03-01T13:35:57;18.60;57.60
59923;DHT22;45778;51.142;3.732;2023-03-01T13:41:15;18.80;57.30
59923;DHT22;45778;51.142;3.732;2023-03-01T13:43:43;18.10;57.50
59923;DHT22;45778;51.142;3.732;2023-03-01T13:46:18;17.30;59.00
59923;DHT22;45778;51.142;3.732;2023-03-01T13:48:50;16.50;59.90
59923;DHT22;45778;51.142;3.732;2023-03-01T13:51:23;17.30;59.90
59923;DHT22;45778;51.142;3.732;2023-03-01T13:53:50;18.40;58.80
59923;DHT22;45778;51.142;3.732;2023-03-01T13:56:25;18.60;56.60
59923;DHT22;45778;51.142;3.732;2023-03-01T13:59:05;18.90;56.50
59923;DHT22;45778;51.142;3.732;2023-03-01T14:01:34;18.80;55.60
59923;DHT22;45778;51.142;3.732;2023-03-01T14:04:02;19.00;55.70
59923;DHT22;45778;51.142;3.732;2023-03-01T14:06:31;19.50;55.30
59923;DHT22;45778;51.142;3.732;2023-03-01T14:19:55;18.10;56.60
59923;DHT22;45778;51.142;3.732;2023-03-01T14:22:33;19.00;56.80
59923;DHT22;45778;51.142;3.732;2023-03-01T14:25:02;19.80;55.20
59923;DHT22;45778;51.142;3.732;2023-03-01T14:27:39;20.60;54.10
59923;DHT22;45778;51.142;3.732;2023-03-01T14:30:26;21.40;53.60
59923;DHT22;45778;51.142;3.732;2023-03-01T14:32:57;22.30;51.70
59923;DHT22;45778;51.142;3.732;2023-03-01T14:35:27;20.80;53.00
59923;DHT22;45778;51.142;3.732;2023-03-01T14:37:52;21.40;52.60
59923;DHT22;45778;51.142;3.732;2023-03-01T14:40:31;21.70;50.90
59923;DHT22;45778;51.142;3.732;2023-03-01T14:42:59;22.00;50.80
59923;DHT22;45778;51.142;3.732;2023-03-01T14:45:27;21.10;50.60
59923;DHT22;45778;51.142;3.732;2023-03-01T14:47:55;19.20;53.00
59923;DHT22;45778;51.142;3.732;2023-03-01T14:50:29;18.70;53.40
59923;DHT22;45778;51.142;3.732;2023-03-01T14:53:01;18.50;54.00
59923;DHT22;45778;51.142;3.732;2023-03-01T14:55:34;18.20;54.80
59923;DHT22;45778;51.142;3.732;2023-03-01T14:58:04;18.70;54.80
59923;DHT22;45778;51.142;3.732;2023-03-01T15:00:32;19.40;53.90
59923;DHT22;45778;51.142;3.732;2023-03-01T15:03:11;19.70;53.10
59923;DHT22;45778;51.142;3.732;2023-03-01T15:05:39;18.90;52.80
59923;DHT22;45778;51.142;3.732;2023-03-01T15:08:06;18.20;54.30
59923;DHT22;45778;51.142;3.732;2023-03-01T15:10:34;17.70;55.00
59923;DHT22;45778;51.142;3.732;2023-03-01T15:13:12;18.10;54.60
59923;DHT22;45778;51.142;3.732;2023-03-01T15:15:41;18.40;54.70
59923;DHT22;45778;51.142;3.732;2023-03-01T15:20:45;19.60;52.70
59923;DHT22;45778;51.142;3.732;2023-03-01T15:25:44;20.60;50.60
59923;DHT22;45778;51.142;3.732;2023-03-01T15:28:18;20.10;51.50
59923;DHT22;45778;51.142;3.732;2023-03-01T15:30:44;20.60;51.00
59923;DHT22;45778;51.142;3.732;2023-03-01T15:33:17;20.60;49.70
59923;DHT22;45778;51.142;3.732;2023-03-01T15:35:53;19.90;49.80
59923;DHT22;45778;51.142;3.732;2023-03-01T15:39:04;19.40;51.30
59923;DHT22;45778;51.142;3.732;2023-03-01T15:43:57;20.00;50.70
59923;DHT22;45778;51.142;3.732;2023-03-01T15:46:27;20.60;50.00
59923;DHT22;45778;51.142;3.732;2023-03-01T15:48:56;20.90;50.00
59923;DHT22;45778;51.142;3.732;2023-03-01T15:51:27;21.00;49.40
59923;DHT22;45778;51.142;3.732;2023-03-01T15:53:54;20.50;49.60
59923;DHT22;45778;51.142;3.732;2023-03-01T15:56:20;20.40;50.00
59923;DHT22;45778;51.142;3.732;2023-03-01T15:58:46;20.70;49.50
59923;DHT22;45778;51.142;3.732;2023-03-01T16:01:16;20.60;49.60
59923;DHT22;45778;51.142;3.732;2023-03-01T16:03:42;21.10;50.00
59923;DHT22;45778;51.142;3.732;2023-03-01T16:06:10;20.80;49.60
59923;DHT22;45778;51.142;3.732;2023-03-01T16:08:36;20.60;49.70
59923;DHT22;45778;51.142;3.732;2023-03-01T16:11:03;20.40;49.80
59923;DHT22;45778;51.142;3.732;2023-03-01T16:13:31;20.40;49.30
59923;DHT22;45778;51.142;3.732;2023-03-01T16:15:57;19.90;49.50
59923;DHT22;45778;51.142;3.732;2023-03-01T16:18:23;19.70;50.00
59923;DHT22;45778;51.142;3.732;2023-03-01T16:20:49;19.60;49.80
59923;DHT22;45778;51.142;3.732;2023-03-01T16:23:15;19.00;50.50
59923;DHT22;45778;51.142;3.732;2023-03-01T16:25:41;18.80;50.70
59923;DHT22;45778;51.142;3.732;2023-03-01T16:28:07;18.90;51.10
59923;DHT22;45778;51.142;3.732;2023-03-01T16:30:39;18.30;51.10
59923;DHT22;45778;51.142;3.732;2023-03-01T16:33:05;18.00;51.20
59923;DHT22;45778;51.142;3.732;2023-03-01T16:35:33;18.00;51.60
59923;DHT22;45778;51.142;3.732;2023-03-01T16:37:59;17.40;51.90
59923;DHT22;45778;51.142;3.732;2023-03-01T16:40:27;15.50;53.70
59923;DHT22;45778;51.142;3.732;2023-03-01T16:42:55;14.20;55.50
59923;DHT22;45778;51.142;3.732;2023-03-01T16:45:24;12.90;57.80
59923;DHT22;45778;51.142;3.732;2023-03-01T16:47:51;11.90;59.60
59923;DHT22;45778;51.142;3.732;2023-03-01T16:50:17;11.40;60.90
59923;DHT22;45778;51.142;3.732;2023-03-01T16:52:42;11.60;61.00
59923;DHT22;45778;51.142;3.732;2023-03-01T16:55:08;12.00;60.20
59923;DHT22;45778;51.142;3.732;2023-03-01T16:57:35;12.20;60.10
59923;DHT22;45778;51.142;3.732;2023-03-01T17:00:01;12.20;60.50
59923;DHT22;45778;51.142;3.732;2023-03-01T17:02:29;11.60;60.50
59923;DHT22;45778;51.142;3.732;2023-03-01T17:04:55;10.90;62.10
59923;DHT22;45778;51.142;3.732;2023-03-01T17:07:21;10.30;63.70
59923;DHT22;45778;51.142;3.732;2023-03-01T17:09:47;9.70;64.50
59923;DHT22;45778;51.142;3.732;2023-03-01T17:12:14;9.20;66.30
59923;DHT22;45778;51.142;3.732;2023-03-01T17:14:41;8.70;67.00
59923;DHT22;45778;51.142;3.732;2023-03-01T17:17:08;8.40;67.70
59923;DHT22;45778;51.142;3.732;2023-03-01T17:19:34;8.10;69.20
59923;DHT22;45778;51.142;3.732;2023-03-01T17:22:02;8.00;70.00
59923;DHT22;45778;51.142;3.732;2023-03-01T17:24:31;7.70;70.20
59923;DHT22;45778;51.142;3.732;2023-03-01T17:26:57;7.50;71.00
59923;DHT22;45778;51.142;3.732;2023-03-01T17:29:23;7.30;71.50
59923;DHT22;45778;51.142;3.732;2023-03-01T17:31:48;7.10;72.20
59923;DHT22;45778;51.142;3.732;2023-03-01T17:34:14;6.90;73.10
59923;DHT22;45778;51.142;3.732;2023-03-01T17:36:41;6.70;73.80
59923;DHT22;45778;51.142;3.732;2023-03-01T17:39:11;6.60;74.50
59923;DHT22;45778;51.142;3.732;2023-03-01T17:41:37;6.50;74.60
59923;DHT22;45778;51.142;3.732;2023-03-01T17:44:02;6.30;76.00
59923;DHT22;45778;51.142;3.732;2023-03-01T17:46:28;6.10;76.60
59923;DHT22;45778;51.142;3.732;2023-03-01T17:48:54;6.00;77.40
59923;DHT22;45778;51.142;3.732;2023-03-01T17:51:20;5.90;77.70
59923;DHT22;45778;51.142;3.732;2023-03-01T17:53:45;5.90;77.70
59923;DHT22;45778;51.142;3.732;2023-03-01T17:56:11;5.80;78.00
59923;DHT22;45778;51.142;3.732;2023-03-01T17:58:37;5.70;78.50